sensor_id;sensor_type;location;lat;lon;timestamp;temperature;humidity
18648;DHT22;9453;50.294;18.644;2024-02-28T05:03:57;8.40;99.90
18648;DHT22;9453;50.294;18.644;2024-02-28T05:06:23;8.30;99.90
18648;DHT22;9453;50.294;18.644;2024-02-28T05:08:50;8.30;99.90
18648;DHT22;9453;50.294;18.644;2024-02-28T05:11:17;8.30;99.90
18648;DHT22;9453;50.294;18.644;2024-02-28T05:13:44;8.30;99.90
18648;DHT22;9453;50.294;18.644;2024-02-28T05:16:14;8.40;99.90
18648;DHT22;9453;50.294;18.644;2024-02-28T05:18:41;8.40;99.90
18648;DHT22;9453;50.294;18.644;2024-02-28T05:21:09;8.40;99.90
18648;DHT22;9453;50.294;18.644;2024-02-28T05:23:36;8.40;99.90
18648;DHT22;9453;50.294;18.644;2024-02-28T05:26:03;8.40;99.90
18648;DHT22;9453;50.294;18.644;2024-02-28T05:28:32;8.30;99.90
18648;DHT22;9453;50.294;18.644;2024-02-28T05:31:00;8.20;99.90
18648;DHT22;9453;50.294;18.644;2024-02-28T05:33:28;8.20;99.90
18648;DHT22;9453;50.294;18.644;2024-02-28T05:35:55;8.20;99.90
18648;DHT22;9453;50.294;18.644;2024-02-28T05:38:23;8.20;99.90
18648;DHT22;9453;50.294;18.644;2024-02-28T05:40:50;8.10;99.90
18648;DHT22;9453;50.294;18.644;2024-02-28T05:43:17;8.20;99.90
18648;DHT22;9453;50.294;18.644;2024-02-28T05:45:43;8.20;99.90
18648;DHT22;9453;50.294;18.644;2024-02-28T05:48:10;8.10;99.90
18648;DHT22;9453;50.294;18.644;2024-02-28T05:50:37;8.10;99.90
18648;DHT22;9453;50.294;18.644;2024-02-28T05:53:04;8.20;99.90
18648;DHT22;9453;50.294;18.644;2024-02-28T05:55:32;8.30;99.90
18648;DHT22;9453;50.294;18.644;2024-02-28T05:57:59;8.20;99.90
18648;DHT22;9453;50.294;18.644;2024-02-28T06:00:26;8.30;99.90
18648;DHT22;9453;50.294;18.644;2024-02-28T06:02:54;8.30;99.90
18648;DHT22;9453;50.294;18.644;2024-02-28T06:05:21;8.30;99.90
18648;DHT22;9453;50.294;18.644;2024-02-28T06:07:47;8.20;99.90
18648;DHT22;9453;50.294;18.644;2024-02-28T06:10:14;8.20;99.90
18648;DHT22;9453;50.294;18.644;2024-02-28T06:12:43;8.20;99.90
18648;DHT22;9453;50.294;18.644;2024-02-28T06:15:10;8.20;99.90
18648;DHT22;9453;50.294;18.644;2024-02-28T06:17:36;8.30;99.90
18648;DHT22;9453;50.294;18.644;2024-02-28T06:20:05;8.30;99.90
18648;DHT22;9453;50.294;18.644;2024-02-28T06:22:33;8.30;99.90
18648;DHT22;9453;50.294;18.644;2024-02-28T06:24:59;8.30;99.90
18648;DHT22;9453;50.294;18.644;2024-02-28T06:27:26;8.30;99.90
18648;DHT22;9453;50.294;18.644;2024-02-28T06:29:54;8.30;99.90
18648;DHT22;9453;50.294;18.644;2024-02-28T06:32:23;8.30;99.90
18648;DHT22;9453;50.294;18.644;2024-02-28T06:34:50;8.30;99.90
18648;DHT22;9453;50.294;18.644;2024-02-28T06:37:18;8.40;99.90
18648;DHT22;9453;50.294;18.644;2024-02-28T06:39:45;8.40;99.90
18648;DHT22;9453;50.294;18.644;2024-02-28T06:42:12;8.40;99.90
18648;DHT22;9453;50.294;18.644;2024-02-28T06:44:39;8.40;99.90
18648;DHT22;9453;50.294;18.644;2024-02-28T06:47:07;8.40;99.90
18648;DHT22;9453;50.294;18.644;2024-02-28T06:49:34;8.40;99.90
18648;DHT22;9453;50.294;18.644;2024-02-28T06:52:01;8.40;99.90
18648;DHT22;9453;50.294;18.644;2024-02-28T06:54:28;8.30;99.90
18648;DHT22;9453;50.294;18.644;2024-02-28T06:56:55;8.30;99.90
18648;DHT22;9453;50.294;18.644;2024-02-28T06:59:22;8.30;99.90
18648;DHT22;9453;50.294;18.644;2024-02-28T07:01:48;8.30;99.90
18648;DHT22;9453;50.294;18.644;2024-02-28T07:04:17;8.40;99.90
18648;DHT22;9453;50.294;18.644;2024-02-28T07:06:44;8.50;99.90
18648;DHT22;9453;50.294;18.644;2024-02-28T07:09:11;8.60;99.90
18648;DHT22;9453;50.294;18.644;2024-02-28T07:11:40;8.50;99.90
18648;DHT22;9453;50.294;18.644;2024-02-28T07:14:08;8.70;99.90
18648;DHT22;9453;50.294;18.644;2024-02-28T07:16:35;8.80;99.90
18648;DHT22;9453;50.294;18.644;2024-02-28T07:19:01;8.80;99.90
18648;DHT22;9453;50.294;18.644;2024-02-28T07:21:29;8.80;99.90
18648;DHT22;9453;50.294;18.644;2024-02-28T07:23:57;8.80;99.90
18648;DHT22;9453;50.294;18.644;2024-02-28T07:26:24;8.80;99.90
18648;DHT22;9453;50.294;18.644;2024-02-28T07:28:51;8.80;99.90
18648;DHT22;9453;50.294;18.644;2024-02-28T07:31:19;9.00;99.90
18648;DHT22;9453;50.294;18.644;2024-02-28T07:33:46;8.90;99.90
18648;DHT22;9453;50.294;18.644;2024-02-28T07:36:12;8.90;99.90
18648;DHT22;9453;50.294;18.644;2024-02-28T07:38:42;8.90;99.90
18648;DHT22;9453;50.294;18.644;2024-02-28T07:41:09;8.90;99.90
18648;DHT22;9453;50.294;18.644;2024-02-28T07:43:36;8.80;99.90
18648;DHT22;9453;50.294;18.644;2024-02-28T07:46:06;8.70;99.90
18648;DHT22;9453;50.294;18.644;2024-02-28T07:48:34;8.70;99.90
18648;DHT22;9453;50.294;18.644;2024-02-28T07:51:01;8.50;99.90
18648;DHT22;9453;50.294;18.644;2024-02-28T07:53:27;8.60;99.90
18648;DHT22;9453;50.294;18.644;2024-02-28T07:55:56;8.70;99.90
18648;DHT22;9453;50.294;18.644;2024-02-28T07:58:23;8.70;99.90
18648;DHT22;9453;50.294;18.644;2024-02-28T08:00:49;8.70;99.90
18648;DHT22;9453;50.294;18.644;2024-02-28T08:03:18;8.80;99.90
18648;DHT22;9453;50.294;18.644;2024-02-28T08:05:45;8.70;99.90
18648;DHT22;9453;50.294;18.644;2024-02-28T08:08:12;8.90;99.90
18648;DHT22;9453;50.294;18.644;2024-02-28T08:10:39;8.90;99.90
18648;DHT22;9453;50.294;18.644;2024-02-28T08:13:07;8.90;99.90
18648;DHT22;9453;50.294;18.644;2024-02-28T08:15:34;9.00;99.90
18648;DHT22;9453;50.294;18.644;2024-02-28T08:18:01;9.00;99.90
18648;DHT22;9453;50.294;18.644;2024-02-28T08:20:28;9.20;99.90
18648;DHT22;9453;50.294;18.644;2024-02-28T08:22:55;9.40;99.90
18648;DHT22;9453;50.294;18.644;2024-02-28T08:25:23;9.40;99.90
18648;DHT22;9453;50.294;18.644;2024-02-28T08:27:49;9.40;99.90
18648;DHT22;9453;50.294;18.644;2024-02-28T08:30:18;9.30;99.90
18648;DHT22;9453;50.294;18.644;2024-02-28T08:32:44;9.30;99.90
18648;DHT22;9453;50.294;18.644;2024-02-28T08:35:11;9.20;99.90
18648;DHT22;9453;50.294;18.644;2024-02-28T08:37:38;9.20;99.90
18648;DHT22;9453;50.294;18.644;2024-02-28T08:40:07;9.40;99.90
18648;DHT22;9453;50.294;18.644;2024-02-28T08:42:34;9.60;99.90
18648;DHT22;9453;50.294;18.644;2024-02-28T08:45:00;9.60;99.90
18648;DHT22;9453;50.294;18.644;2024-02-28T08:47:30;9.70;99.90
18648;DHT22;9453;50.294;18.644;2024-02-28T08:49:57;9.80;99.90
18648;DHT22;9453;50.294;18.644;2024-02-28T08:52:24;10.10;99.90
18648;DHT22;9453;50.294;18.644;2024-02-28T08:54:51;10.30;99.90
18648;DHT22;9453;50.294;18.644;2024-02-28T08:57:19;10.30;99.90
18648;DHT22;9453;50.294;18.644;2024-02-28T08:59:47;10.50;99.90
18648;DHT22;9453;50.294;18.644;2024-02-28T09:02:14;10.50;99.90
18648;DHT22;9453;50.294;18.644;2024-02-28T09:04:43;10.40;99.90
18648;DHT22;9453;50.294;18.644;2024-02-28T09:07:10;10.50;99.90
18648;DHT22;9453;50.294;18.644;2024-02-28T09:09:41;10.70;99.90
18648;DHT22;9453;50.294;18.644;2024-02-28T09:12:08;10.70;99.90
18648;DHT22;9453;50.294;18.644;2024-02-28T09:14:35;10.70;99.90
18648;DHT22;9453;50.294;18.644;2024-02-28T09:17:02;10.70;99.90
18648;DHT22;9453;50.294;18.644;2024-02-28T09:19:29;10.90;99.90
18648;DHT22;9453;50.294;18.644;2024-02-28T09:21:58;10.80;99.90
18648;DHT22;9453;50.294;18.644;2024-02-28T09:24:25;10.90;99.90
18648;DHT22;9453;50.294;18.644;2024-02-28T09:26:52;10.90;99.90
18648;DHT22;9453;50.294;18.644;2024-02-28T09:29:19;10.80;99.90
18648;DHT22;9453;50.294;18.644;2024-02-28T09:31:46;10.70;99.90
18648;DHT22;9453;50.294;18.644;2024-02-28T09:34:15;10.40;99.90
18648;DHT22;9453;50.294;18.644;2024-02-28T09:36:42;10.30;99.90
18648;DHT22;9453;50.294;18.644;2024-02-28T09:39:12;10.40;99.90
18648;DHT22;9453;50.294;18.644;2024-02-28T09:41:41;10.30;99.90
18648;DHT22;9453;50.294;18.644;2024-02-28T09:44:08;10.10;99.90
18648;DHT22;9453;50.294;18.644;2024-02-28T09:46:35;10.00;99.90
18648;DHT22;9453;50.294;18.644;2024-02-28T09:49:03;9.90;99.90
18648;DHT22;9453;50.294;18.644;2024-02-28T09:51:33;9.90;99.90
18648;DHT22;9453;50.294;18.644;2024-02-28T09:54:01;9.90;99.90
18648;DHT22;9453;50.294;18.644;2024-02-28T09:56:30;9.80;99.90
18648;DHT22;9453;50.294;18.644;2024-02-28T09:58:58;9.80;99.90
18648;DHT22;9453;50.294;18.644;2024-02-28T10:01:26;9.70;99.90
18648;DHT22;9453;50.294;18.644;2024-02-28T10:03:54;9.90;99.90
18648;DHT22;9453;50.294;18.644;2024-02-28T10:06:22;9.80;99.90
18648;DHT22;9453;50.294;18.644;2024-02-28T10:08:49;9.80;99.90
18648;DHT22;9453;50.294;18.644;2024-02-28T10:11:19;9.80;99.90
18648;DHT22;9453;50.294;18.644;2024-02-28T10:13:48;10.00;99.90
18648;DHT22;9453;50.294;18.644;2024-02-28T10:16:15;10.10;99.90
18648;DHT22;9453;50.294;18.644;2024-02-28T10:18:42;10.20;99.90
18648;DHT22;9453;50.294;18.644;2024-02-28T10:21:09;10.30;99.90
18648;DHT22;9453;50.294;18.644;2024-02-28T10:23:38;10.30;99.90
18648;DHT22;9453;50.294;18.644;2024-02-28T10:26:08;10.10;99.90
18648;DHT22;9453;50.294;18.644;2024-02-28T10:28:36;10.10;99.90
18648;DHT22;9453;50.294;18.644;2024-02-28T10:31:05;10.20;99.90
18648;DHT22;9453;50.294;18.644;2024-02-28T10:33:32;10.20;99.90
18648;DHT22;9453;50.294;18.644;2024-02-28T10:36:02;10.30;99.90
18648;DHT22;9453;50.294;18.644;2024-02-28T10:38:30;10.20;99.90
18648;DHT22;9453;50.294;18.644;2024-02-28T10:40:59;10.10;99.90
18648;DHT22;9453;50.294;18.644;2024-02-28T10:43:28;10.00;99.90
18648;DHT22;9453;50.294;18.644;2024-02-28T10:45:56;10.00;99.90
18648;DHT22;9453;50.294;18.644;2024-02-28T10:48:25;9.80;99.90
18648;DHT22;9453;50.294;18.644;2024-02-28T10:50:52;9.90;99.90
18648;DHT22;9453;50.294;18.644;2024-02-28T10:53:22;9.80;99.90
18648;DHT22;9453;50.294;18.644;2024-02-28T10:55:51;9.70;99.90
18648;DHT22;9453;50.294;18.644;2024-02-28T10:58:22;9.70;99.90
18648;DHT22;9453;50.294;18.644;2024-02-28T11:00:52;9.70;99.90
18648;DHT22;9453;50.294;18.644;2024-02-28T11:03:19;9.60;99.90
18648;DHT22;9453;50.294;18.644;2024-02-28T11:05:48;9.70;99.90
18648;DHT22;9453;50.294;18.644;2024-02-28T11:08:21;9.70;99.90
18648;DHT22;9453;50.294;18.644;2024-02-28T11:10:55;9.80;99.90
18648;DHT22;9453;50.294;18.644;2024-02-28T11:13:22;9.80;99.90
18648;DHT22;9453;50.294;18.644;2024-02-28T11:15:49;9.90;99.90
18648;DHT22;9453;50.294;18.644;2024-02-28T11:18:16;10.00;99.90
18648;DHT22;9453;50.294;18.644;2024-02-28T11:20:43;9.90;99.90
18648;DHT22;9453;50.294;18.644;2024-02-28T11:23:13;9.80;99.90
18648;DHT22;9453;50.294;18.644;2024-02-28T11:25:41;9.90;99.90
18648;DHT22;9453;50.294;18.644;2024-02-28T11:28:08;9.80;99.90
18648;DHT22;9453;50.294;18.644;2024-02-28T11:30:35;9.80;99.90
18648;DHT22;9453;50.294;18.644;2024-02-28T11:33:02;9.80;99.90
18648;DHT22;9453;50.294;18.644;2024-02-28T11:35:30;9.90;99.90
18648;DHT22;9453;50.294;18.644;2024-02-28T11:37:57;10.00;99.90
18648;DHT22;9453;50.294;18.644;2024-02-28T11:40:26;10.20;99.90
18648;DHT22;9453;50.294;18.644;2024-02-28T11:42:54;10.10;99.90
18648;DHT22;9453;50.294;18.644;2024-02-28T11:45:21;10.20;99.90
18648;DHT22;9453;50.294;18.644;2024-02-28T11:47:49;10.10;99.90
18648;DHT22;9453;50.294;18.644;2024-02-28T11:50:16;10.00;99.90
18648;DHT22;9453;50.294;18.644;2024-02-28T11:52:44;10.00;99.90
18648;DHT22;9453;50.294;18.644;2024-02-28T11:55:11;9.90;99.90
18648;DHT22;9453;50.294;18.644;2024-02-28T11:57:39;9.90;99.90
18648;DHT22;9453;50.294;18.644;2024-02-28T12:00:08;10.00;99.90
18648;DHT22;9453;50.294;18.644;2024-02-28T12:02:36;10.10;99.90
18648;DHT22;9453;50.294;18.644;2024-02-28T12:05:03;10.10;99.90
18648;DHT22;9453;50.294;18.644;2024-02-28T12:07:30;10.00;99.90
18648;DHT22;9453;50.294;18.644;2024-02-28T12:09:57;10.00;99.90
18648;DHT22;9453;50.294;18.644;2024-02-28T12:12:24;10.00;99.90
18648;DHT22;9453;50.294;18.644;2024-02-28T12:14:52;10.00;99.90
18648;DHT22;9453;50.294;18.644;2024-02-28T12:17:19;10.00;99.90
18648;DHT22;9453;50.294;18.644;2024-02-28T12:19:46;10.00;99.90
18648;DHT22;9453;50.294;18.644;2024-02-28T12:22:13;10.00;99.90
18648;DHT22;9453;50.294;18.644;2024-02-28T12:24:40;10.00;99.90
18648;DHT22;9453;50.294;18.644;2024-02-28T12:27:06;10.00;99.90
18648;DHT22;9453;50.294;18.644;2024-02-28T12:29:33;10.00;99.90
18648;DHT22;9453;50.294;18.644;2024-02-28T12:32:02;9.90;99.90
18648;DHT22;9453;50.294;18.644;2024-02-28T12:34:29;9.90;99.90
18648;DHT22;9453;50.294;18.644;2024-02-28T12:36:56;9.90;99.90
18648;DHT22;9453;50.294;18.644;2024-02-28T12:39:23;10.10;99.90
18648;DHT22;9453;50.294;18.644;2024-02-28T12:41:50;10.10;99.90
18648;DHT22;9453;50.294;18.644;2024-02-28T12:44:17;10.10;99.90
18648;DHT22;9453;50.294;18.644;2024-02-28T12:46:44;10.10;99.90
18648;DHT22;9453;50.294;18.644;2024-02-28T12:49:12;10.00;99.90
18648;DHT22;9453;50.294;18.644;2024-02-28T12:51:40;10.00;99.90
18648;DHT22;9453;50.294;18.644;2024-02-28T12:54:07;10.00;99.90
18648;DHT22;9453;50.294;18.644;2024-02-28T12:56:35;10.00;99.90
18648;DHT22;9453;50.294;18.644;2024-02-28T12:59:02;10.00;99.90
18648;DHT22;9453;50.294;18.644;2024-02-28T13:01:29;10.00;99.90
18648;DHT22;9453;50.294;18.644;2024-02-28T13:03:56;10.10;99.90
18648;DHT22;9453;50.294;18.644;2024-02-28T13:06:24;10.20;99.90
18648;DHT22;9453;50.294;18.644;2024-02-28T13:08:51;10.10;99.90
18648;DHT22;9453;50.294;18.644;2024-02-28T13:11:19;10.20;99.90
18648;DHT22;9453;50.294;18.644;2024-02-28T13:13:47;10.20;99.90
18648;DHT22;9453;50.294;18.644;2024-02-28T13:16:14;10.20;99.90
18648;DHT22;9453;50.294;18.644;2024-02-28T13:18:41;10.20;99.90
18648;DHT22;9453;50.294;18.644;2024-02-28T13:21:09;10.20;99.90
18648;DHT22;9453;50.294;18.644;2024-02-28T13:23:38;10.10;99.90
18648;DHT22;9453;50.294;18.644;2024-02-28T13:26:05;10.10;99.90
18648;DHT22;9453;50.294;18.644;2024-02-28T13:28:32;10.10;99.90
18648;DHT22;9453;50.294;18.644;2024-02-28T13:31:01;10.10;99.90
18648;DHT22;9453;50.294;18.644;2024-02-28T13:33:28;10.00;99.90
18648;DHT22;9453;50.294;18.644;2024-02-28T13:35:55;10.00;99.90
18648;DHT22;9453;50.294;18.644;2024-02-28T13:38:22;10.00;99.90
18648;DHT22;9453;50.294;18.644;2024-02-28T13:40:50;9.90;99.90
18648;DHT22;9453;50.294;18.644;2024-02-28T13:43:18;9.70;99.90
18648;DHT22;9453;50.294;18.644;2024-02-28T13:45:47;9.80;99.90
18648;DHT22;9453;50.294;18.644;2024-02-28T13:48:16;9.70;99.90
18648;DHT22;9453;50.294;18.644;2024-02-28T13:50:44;9.80;99.90
18648;DHT22;9453;50.294;18.644;2024-02-28T13:53:11;9.70;99.90
18648;DHT22;9453;50.294;18.644;2024-02-28T13:55:39;9.60;99.90
18648;DHT22;9453;50.294;18.644;2024-02-28T13:58:07;9.50;99.90
18648;DHT22;9453;50.294;18.644;2024-02-28T14:00:35;9.50;99.90
18648;DHT22;9453;50.294;18.644;2024-02-28T14:03:02;9.40;99.90
18648;DHT22;9453;50.294;18.644;2024-02-28T14:05:30;9.40;99.90
18648;DHT22;9453;50.294;18.644;2024-02-28T14:07:56;9.40;99.90
18648;DHT22;9453;50.294;18.644;2024-02-28T14:10:24;9.40;99.90
18648;DHT22;9453;50.294;18.644;2024-02-28T14:12:51;9.40;99.90
18648;DHT22;9453;50.294;18.644;2024-02-28T14:15:20;9.50;99.90
18648;DHT22;9453;50.294;18.644;2024-02-28T14:17:48;9.60;99.90
18648;DHT22;9453;50.294;18.644;2024-02-28T14:20:15;9.50;99.90
18648;DHT22;9453;50.294;18.644;2024-02-28T14:22:42;9.60;99.90
18648;DHT22;9453;50.294;18.644;2024-02-28T14:25:12;9.60;99.90
18648;DHT22;9453;50.294;18.644;2024-02-28T14:27:39;9.50;99.90
18648;DHT22;9453;50.294;18.644;2024-02-28T14:30:07;9.50;99.90
18648;DHT22;9453;50.294;18.644;2024-02-28T14:32:36;9.40;99.90
18648;DHT22;9453;50.294;18.644;2024-02-28T14:35:03;9.30;99.90
18648;DHT22;9453;50.294;18.644;2024-02-28T14:37:31;9.30;99.90
18648;DHT22;9453;50.294;18.644;2024-02-28T14:39:59;9.30;99.90
18648;DHT22;9453;50.294;18.644;2024-02-28T14:42:26;9.20;99.90
18648;DHT22;9453;50.294;18.644;2024-02-28T14:44:53;9.20;99.90
18648;DHT22;9453;50.294;18.644;2024-02-28T14:47:20;9.20;99.90
18648;DHT22;9453;50.294;18.644;2024-02-28T14:49:48;9.20;99.90
18648;DHT22;9453;50.294;18.644;2024-02-28T14:52:15;9.20;99.90
18648;DHT22;9453;50.294;18.644;2024-02-28T14:54:42;9.10;99.90
18648;DHT22;9453;50.294;18.644;2024-02-28T14:57:10;9.10;99.90
18648;DHT22;9453;50.294;18.644;2024-02-28T14:59:37;9.10;99.90
18648;DHT22;9453;50.294;18.644;2024-02-28T15:02:04;9.00;99.90
18648;DHT22;9453;50.294;18.644;2024-02-28T15:04:31;9.00;99.90
18648;DHT22;9453;50.294;18.644;2024-02-28T15:06:59;9.00;99.90
18648;DHT22;9453;50.294;18.644;2024-02-28T15:09:26;9.00;99.90
18648;DHT22;9453;50.294;18.644;2024-02-28T15:11:53;9.00;99.90
18648;DHT22;9453;50.294;18.644;2024-02-28T15:14:20;9.10;99.90
18648;DHT22;9453;50.294;18.644;2024-02-28T15:16:48;9.10;99.90
18648;DHT22;9453;50.294;18.644;2024-02-28T15:19:15;9.10;99.90
18648;DHT22;9453;50.294;18.644;2024-02-28T15:21:43;9.20;99.90
18648;DHT22;9453;50.294;18.644;2024-02-28T15:24:11;9.20;99.90
18648;DHT22;9453;50.294;18.644;2024-02-28T15:26:39;9.20;99.90
18648;DHT22;9453;50.294;18.644;2024-02-28T15:29:06;9.20;99.90
18648;DHT22;9453;50.294;18.644;2024-02-28T15:31:33;9.20;99.90
18648;DHT22;9453;50.294;18.644;2024-02-28T15:34:01;9.10;99.90
18648;DHT22;9453;50.294;18.644;2024-02-28T15:36:28;9.10;99.90
18648;DHT22;9453;50.294;18.644;2024-02-28T15:38:55;9.00;99.90
18648;DHT22;9453;50.294;18.644;2024-02-28T15:41:24;9.00;99.90
18648;DHT22;9453;50.294;18.644;2024-02-28T15:43:51;9.00;99.90
18648;DHT22;9453;50.294;18.644;2024-02-28T15:46:18;9.00;99.90
18648;DHT22;9453;50.294;18.644;2024-02-28T15:48:45;8.90;99.90
18648;DHT22;9453;50.294;18.644;2024-02-28T15:51:12;8.90;99.90
18648;DHT22;9453;50.294;18.644;2024-02-28T15:53:39;8.90;99.90
18648;DHT22;9453;50.294;18.644;2024-02-28T15:56:06;8.80;99.90
18648;DHT22;9453;50.294;18.644;2024-02-28T15:58:34;8.80;99.90
18648;DHT22;9453;50.294;18.644;2024-02-28T16:01:01;8.70;99.90
18648;DHT22;9453;50.294;18.644;2024-02-28T16:03:28;8.70;99.90
18648;DHT22;9453;50.294;18.644;2024-02-28T16:05:55;8.60;99.90
18648;DHT22;9453;50.294;18.644;2024-02-28T16:08:22;8.60;99.90
18648;DHT22;9453;50.294;18.644;2024-02-28T16:10:50;8.50;99.90
18648;DHT22;9453;50.294;18.644;2024-02-28T16:13:18;8.50;99.90
18648;DHT22;9453;50.294;18.644;2024-02-28T16:15:46;8.50;99.90
18648;DHT22;9453;50.294;18.644;2024-02-28T16:18:13;8.50;99.90
18648;DHT22;9453;50.294;18.644;2024-02-28T16:20:40;8.50;99.90
18648;DHT22;9453;50.294;18.644;2024-02-28T16:23:07;8.60;99.90
18648;DHT22;9453;50.294;18.644;2024-02-28T16:25:34;8.60;99.90
18648;DHT22;9453;50.294;18.644;2024-02-28T16:28:01;8.70;99.90
18648;DHT22;9453;50.294;18.644;2024-02-28T16:30:28;8.70;99.90
18648;DHT22;9453;50.294;18.644;2024-02-28T16:32:56;8.70;99.90
18648;DHT22;9453;50.294;18.644;2024-02-28T16:35:23;8.80;99.90
18648;DHT22;9453;50.294;18.644;2024-02-28T16:37:51;8.60;99.90
18648;DHT22;9453;50.294;18.644;2024-02-28T16:40:17;8.60;99.90
18648;DHT22;9453;50.294;18.644;2024-02-28T16:42:44;8.70;99.90
18648;DHT22;9453;50.294;18.644;2024-02-28T16:45:11;8.70;99.90
18648;DHT22;9453;50.294;18.644;2024-02-28T16:47:38;8.70;99.90
18648;DHT22;9453;50.294;18.644;2024-02-28T16:50:09;8.60;99.90
18648;DHT22;9453;50.294;18.644;2024-02-28T16:52:36;8.60;99.90
18648;DHT22;9453;50.294;18.644;2024-02-28T16:55:03;8.60;99.90
18648;DHT22;9453;50.294;18.644;2024-02-28T16:57:30;8.60;99.90
18648;DHT22;9453;50.294;18.644;2024-02-28T16:59:57;8.60;99.90
18648;DHT22;9453;50.294;18.644;2024-02-28T17:02:24;8.60;99.90
18648;DHT22;9453;50.294;18.644;2024-02-28T17:04:51;8.60;99.90
18648;DHT22;9453;50.294;18.644;2024-02-28T17:07:20;8.70;99.90
18648;DHT22;9453;50.294;18.644;2024-02-28T17:09:47;8.60;99.90
18648;DHT22;9453;50.294;18.644;2024-02-28T17:12:13;8.60;99.90
18648;DHT22;9453;50.294;18.644;2024-02-28T17:14:41;8.60;99.90
18648;DHT22;9453;50.294;18.644;2024-02-28T17:17:08;8.60;99.90
18648;DHT22;9453;50.294;18.644;2024-02-28T17:19:36;8.60;99.90
18648;DHT22;9453;50.294;18.644;2024-02-28T17:22:04;8.70;99.90
18648;DHT22;9453;50.294;18.644;2024-02-28T17:24:33;8.60;99.90
18648;DHT22;9453;50.294;18.644;2024-02-28T17:27:01;8.70;99.90
18648;DHT22;9453;50.294;18.644;2024-02-28T17:29:28;8.80;99.90
18648;DHT22;9453;50.294;18.644;2024-02-28T17:31:56;8.80;99.90
18648;DHT22;9453;50.294;18.644;2024-02-28T17:34:23;8.80;99.90
18648;DHT22;9453;50.294;18.644;2024-02-28T17:36:50;8.80;99.90
18648;DHT22;9453;50.294;18.644;2024-02-28T17:39:17;8.80;99.90
18648;DHT22;9453;50.294;18.644;2024-02-28T17:41:47;8.80;99.90
18648;DHT22;9453;50.294;18.644;2024-02-28T17:44:14;8.80;99.90
18648;DHT22;9453;50.294;18.644;2024-02-28T17:46:41;8.80;99.90
18648;DHT22;9453;50.294;18.644;2024-02-28T17:49:08;8.80;99.90
18648;DHT22;9453;50.294;18.644;2024-02-28T17:51:35;8.80;99.90
18648;DHT22;9453;50.294;18.644;2024-02-28T17:54:03;8.70;99.90
18648;DHT22;9453;50.294;18.644;2024-02-28T17:56:30;8.70;99.90
18648;DHT22;9453;50.294;18.644;2024-02-28T17:58:58;8.60;99.90
18648;DHT22;9453;50.294;18.644;2024-02-28T18:01:26;8.60;99.90
18648;DHT22;9453;50.294;18.644;2024-02-28T18:03:52;8.60;99.90
18648;DHT22;9453;50.294;18.644;2024-02-28T18:06:19;8.60;99.90
18648;DHT22;9453;50.294;18.644;2024-02-28T18:08:46;8.50;99.90
18648;DHT22;9453;50.294;18.644;2024-02-28T18:11:13;8.50;99.90
18648;DHT22;9453;50.294;18.644;2024-02-28T18:13:39;8.50;99.90
18648;DHT22;9453;50.294;18.644;2024-02-28T18:16:08;8.50;99.90
18648;DHT22;9453;50.294;18.644;2024-02-28T18:18:35;8.50;99.90
18648;DHT22;9453;50.294;18.644;2024-02-28T18:21:02;8.30;99.90
18648;DHT22;9453;50.294;18.644;2024-02-28T18:23:28;8.20;99.90
18648;DHT22;9453;50.294;18.644;2024-02-28T18:25:55;8.20;99.90
18648;DHT22;9453;50.294;18.644;2024-02-28T18:28:22;8.10;99.90
18648;DHT22;9453;50.294;18.644;2024-02-28T18:30:49;8.10;99.90
18648;DHT22;9453;50.294;18.644;2024-02-28T18:33:17;8.10;99.90
18648;DHT22;9453;50.294;18.644;2024-02-28T18:35:44;8.10;99.90
18648;DHT22;9453;50.294;18.644;2024-02-28T18:38:13;8.00;99.90
18648;DHT22;9453;50.294;18.644;2024-02-28T18:40:40;8.00;99.90
18648;DHT22;9453;50.294;18.644;2024-02-28T18:43:07;7.90;99.90
18648;DHT22;9453;50.294;18.644;2024-02-28T18:45:34;7.90;99.90
18648;DHT22;9453;50.294;18.644;2024-02-28T18:48:00;7.80;99.90
18648;DHT22;9453;50.294;18.644;2024-02-28T18:50:29;7.80;99.90
18648;DHT22;9453;50.294;18.644;2024-02-28T18:52:56;7.80;99.90
18648;DHT22;9453;50.294;18.644;2024-02-28T18:55:22;7.80;99.90
18648;DHT22;9453;50.294;18.644;2024-02-28T18:57:50;7.80;99.90
18648;DHT22;9453;50.294;18.644;2024-02-28T19:00:18;7.80;99.90
18648;DHT22;9453;50.294;18.644;2024-02-28T19:02:45;7.80;99.90
18648;DHT22;9453;50.294;18.644;2024-02-28T19:05:12;7.80;99.90
18648;DHT22;9453;50.294;18.644;2024-02-28T19:07:41;7.80;99.90
18648;DHT22;9453;50.294;18.644;2024-02-28T19:10:08;7.80;99.90
18648;DHT22;9453;50.294;18.644;2024-02-28T19:12:36;7.80;99.90
18648;DHT22;9453;50.294;18.644;2024-02-28T19:15:03;7.80;99.90
18648;DHT22;9453;50.294;18.644;2024-02-28T19:17:30;7.80;99.90
18648;DHT22;9453;50.294;18.644;2024-02-28T19:19:57;7.80;99.90
18648;DHT22;9453;50.294;18.644;2024-02-28T19:22:24;7.70;99.90
18648;DHT22;9453;50.294;18.644;2024-02-28T19:24:52;7.70;99.90
18648;DHT22;9453;50.294;18.644;2024-02-28T19:27:19;7.70;99.90
18648;DHT22;9453;50.294;18.644;2024-02-28T19:29:45;7.70;99.90
18648;DHT22;9453;50.294;18.644;2024-02-28T19:32:12;7.60;99.90
18648;DHT22;9453;50.294;18.644;2024-02-28T19:34:40;7.60;99.90
18648;DHT22;9453;50.294;18.644;2024-02-28T19:37:07;7.60;99.90
18648;DHT22;9453;50.294;18.644;2024-02-28T19:39:34;7.60;99.90
18648;DHT22;9453;50.294;18.644;2024-02-28T19:42:02;7.60;99.90
18648;DHT22;9453;50.294;18.644;2024-02-28T19:44:29;7.60;99.90
18648;DHT22;9453;50.294;18.644;2024-02-28T19:46:56;7.60;99.90
18648;DHT22;9453;50.294;18.644;2024-02-28T19:49:23;7.60;99.90
18648;DHT22;9453;50.294;18.644;2024-02-28T19:51:50;7.70;99.90
18648;DHT22;9453;50.294;18.644;2024-02-28T19:54:17;7.70;99.90
18648;DHT22;9453;50.294;18.644;2024-02-28T19:56:44;7.70;99.90
18648;DHT22;9453;50.294;18.644;2024-02-28T19:59:12;7.70;99.90
18648;DHT22;9453;50.294;18.644;2024-02-28T20:01:39;7.60;99.90
18648;DHT22;9453;50.294;18.644;2024-02-28T20:04:06;7.70;99.90
18648;DHT22;9453;50.294;18.644;2024-02-28T20:06:33;7.60;99.90
18648;DHT22;9453;50.294;18.644;2024-02-28T20:09:06;7.60;99.90
18648;DHT22;9453;50.294;18.644;2024-02-28T20:11:33;7.60;99.90
18648;DHT22;9453;50.294;18.644;2024-02-28T20:14:01;7.60;99.90
18648;DHT22;9453;50.294;18.644;2024-02-28T20:16:30;7.60;99.90
18648;DHT22;9453;50.294;18.644;2024-02-28T20:18:57;7.60;99.90
18648;DHT22;9453;50.294;18.644;2024-02-28T20:21:24;7.60;99.90
18648;DHT22;9453;50.294;18.644;2024-02-28T20:23:52;7.60;99.90
18648;DHT22;9453;50.294;18.644;2024-02-28T20:26:19;7.60;99.90
18648;DHT22;9453;50.294;18.644;2024-02-28T20:28:46;7.60;99.90
18648;DHT22;9453;50.294;18.644;2024-02-28T20:31:13;7.60;99.90
18648;DHT22;9453;50.294;18.644;2024-02-28T20:33:42;7.50;99.90
18648;DHT22;9453;50.294;18.644;2024-02-28T20:36:10;7.50;99.90
18648;DHT22;9453;50.294;18.644;2024-02-28T20:38:36;7.50;99.90
18648;DHT22;9453;50.294;18.644;2024-02-28T20:41:03;7.50;99.90
18648;DHT22;9453;50.294;18.644;2024-02-28T20:43:30;7.50;99.90
18648;DHT22;9453;50.294;18.644;2024-02-28T20:45:58;7.50;99.90